sensor_id;sensor_type;location;lat;lon;timestamp;temperature;humidity
38866;DHT22;62686;48.984;8.394;2023-07-31T00:02:11;15.70;99.90
38866;DHT22;62686;48.984;8.394;2023-07-31T00:04:39;15.80;99.90
38866;DHT22;62686;48.984;8.394;2023-07-31T00:07:09;16.00;99.90
38866;DHT22;62686;48.984;8.394;2023-07-31T00:09:37;16.00;99.90
38866;DHT22;62686;48.984;8.394;2023-07-31T00:12:06;15.90;99.90
38866;DHT22;62686;48.984;8.394;2023-07-31T00:14:35;15.90;99.90
38866;DHT22;62686;48.984;8.394;2023-07-31T00:17:06;15.80;99.90
38866;DHT22;62686;48.984;8.394;2023-07-31T00:19:34;15.80;99.90
38866;DHT22;62686;48.984;8.394;2023-07-31T00:22:02;15.70;99.90
38866;DHT22;62686;48.984;8.394;2023-07-31T00:24:32;15.60;99.90
38866;DHT22;62686;48.984;8.394;2023-07-31T00:27:00;15.60;99.90
38866;DHT22;62686;48.984;8.394;2023-07-31T00:29:28;15.50;99.90
38866;DHT22;62686;48.984;8.394;2023-07-31T00:31:57;15.40;99.90
38866;DHT22;62686;48.984;8.394;2023-07-31T00:34:26;15.50;99.90
38866;DHT22;62686;48.984;8.394;2023-07-31T00:36:55;15.50;99.90
38866;DHT22;62686;48.984;8.394;2023-07-31T00:39:23;15.50;99.90
38866;DHT22;62686;48.984;8.394;2023-07-31T00:41:52;15.40;99.90
38866;DHT22;62686;48.984;8.394;2023-07-31T00:44:20;15.40;99.90
38866;DHT22;62686;48.984;8.394;2023-07-31T00:46:49;15.40;99.90
38866;DHT22;62686;48.984;8.394;2023-07-31T00:49:18;15.40;99.90
38866;DHT22;62686;48.984;8.394;2023-07-31T00:51:46;15.40;99.90
38866;DHT22;62686;48.984;8.394;2023-07-31T00:54:14;15.40;99.90
38866;DHT22;62686;48.984;8.394;2023-07-31T00:56:45;15.50;99.90
38866;DHT22;62686;48.984;8.394;2023-07-31T00:59:16;15.60;99.90
38866;DHT22;62686;48.984;8.394;2023-07-31T01:01:45;15.60;99.90
38866;DHT22;62686;48.984;8.394;2023-07-31T01:04:14;15.60;99.90
38866;DHT22;62686;48.984;8.394;2023-07-31T01:06:48;15.50;99.90
38866;DHT22;62686;48.984;8.394;2023-07-31T01:09:22;15.50;99.90
38866;DHT22;62686;48.984;8.394;2023-07-31T01:11:57;15.50;99.90
38866;DHT22;62686;48.984;8.394;2023-07-31T01:14:29;15.40;99.90
38866;DHT22;62686;48.984;8.394;2023-07-31T01:16:58;15.40;99.90
38866;DHT22;62686;48.984;8.394;2023-07-31T01:19:26;15.40;99.90
38866;DHT22;62686;48.984;8.394;2023-07-31T01:22:12;15.30;99.90
38866;DHT22;62686;48.984;8.394;2023-07-31T01:24:55;15.20;99.90
38866;DHT22;62686;48.984;8.394;2023-07-31T01:27:30;15.20;99.90
38866;DHT22;62686;48.984;8.394;2023-07-31T01:30:07;15.00;99.90
38866;DHT22;62686;48.984;8.394;2023-07-31T01:32:40;15.00;99.90
38866;DHT22;62686;48.984;8.394;2023-07-31T01:35:10;14.80;99.90
38866;DHT22;62686;48.984;8.394;2023-07-31T01:37:39;14.70;99.90
38866;DHT22;62686;48.984;8.394;2023-07-31T01:40:07;14.70;99.90
38866;DHT22;62686;48.984;8.394;2023-07-31T01:42:37;14.70;99.90
38866;DHT22;62686;48.984;8.394;2023-07-31T01:45:06;14.70;99.90
38866;DHT22;62686;48.984;8.394;2023-07-31T01:47:35;14.70;99.90
38866;DHT22;62686;48.984;8.394;2023-07-31T01:50:04;14.60;99.90
38866;DHT22;62686;48.984;8.394;2023-07-31T01:52:32;14.60;99.90
38866;DHT22;62686;48.984;8.394;2023-07-31T01:55:00;14.60;99.90
38866;DHT22;62686;48.984;8.394;2023-07-31T01:57:29;14.60;99.90
38866;DHT22;62686;48.984;8.394;2023-07-31T01:59:58;14.50;99.90
38866;DHT22;62686;48.984;8.394;2023-07-31T02:02:26;14.50;99.90
38866;DHT22;62686;48.984;8.394;2023-07-31T02:04:55;14.50;99.90
38866;DHT22;62686;48.984;8.394;2023-07-31T02:07:23;14.50;99.90
38866;DHT22;62686;48.984;8.394;2023-07-31T02:09:51;14.50;99.90
38866;DHT22;62686;48.984;8.394;2023-07-31T02:12:20;14.50;99.90
38866;DHT22;62686;48.984;8.394;2023-07-31T02:14:48;14.40;99.90
38866;DHT22;62686;48.984;8.394;2023-07-31T02:17:18;14.40;99.90
38866;DHT22;62686;48.984;8.394;2023-07-31T02:19:48;14.50;99.90
38866;DHT22;62686;48.984;8.394;2023-07-31T02:22:16;14.40;99.90
38866;DHT22;62686;48.984;8.394;2023-07-31T02:24:45;14.40;99.90
38866;DHT22;62686;48.984;8.394;2023-07-31T02:27:13;14.50;99.90
38866;DHT22;62686;48.984;8.394;2023-07-31T02:29:41;14.60;99.90
38866;DHT22;62686;48.984;8.394;2023-07-31T02:32:09;14.60;99.90
38866;DHT22;62686;48.984;8.394;2023-07-31T02:34:39;14.70;99.90
38866;DHT22;62686;48.984;8.394;2023-07-31T02:37:07;14.60;99.90
38866;DHT22;62686;48.984;8.394;2023-07-31T02:39:35;14.60;99.90
38866;DHT22;62686;48.984;8.394;2023-07-31T02:42:05;14.50;99.90
38866;DHT22;62686;48.984;8.394;2023-07-31T02:44:34;14.50;99.90
38866;DHT22;62686;48.984;8.394;2023-07-31T02:47:02;14.50;99.90
38866;DHT22;62686;48.984;8.394;2023-07-31T02:49:34;14.50;99.90
38866;DHT22;62686;48.984;8.394;2023-07-31T02:52:07;14.50;99.90
38866;DHT22;62686;48.984;8.394;2023-07-31T02:54:35;14.50;99.90
38866;DHT22;62686;48.984;8.394;2023-07-31T02:57:04;14.60;99.90
38866;DHT22;62686;48.984;8.394;2023-07-31T02:59:32;14.80;99.90
38866;DHT22;62686;48.984;8.394;2023-07-31T03:02:00;14.80;99.90
38866;DHT22;62686;48.984;8.394;2023-07-31T03:04:28;14.80;99.90
38866;DHT22;62686;48.984;8.394;2023-07-31T03:06:56;14.90;99.90
38866;DHT22;62686;48.984;8.394;2023-07-31T03:09:26;14.90;99.90
38866;DHT22;62686;48.984;8.394;2023-07-31T03:11:54;14.90;99.90
38866;DHT22;62686;48.984;8.394;2023-07-31T03:14:23;14.90;99.90
38866;DHT22;62686;48.984;8.394;2023-07-31T03:16:53;14.90;99.90
38866;DHT22;62686;48.984;8.394;2023-07-31T03:19:21;15.00;99.90
38866;DHT22;62686;48.984;8.394;2023-07-31T03:21:50;15.00;99.90
38866;DHT22;62686;48.984;8.394;2023-07-31T03:24:18;15.00;99.90
38866;DHT22;62686;48.984;8.394;2023-07-31T03:26:48;15.00;99.90
38866;DHT22;62686;48.984;8.394;2023-07-31T03:29:16;15.00;99.90
38866;DHT22;62686;48.984;8.394;2023-07-31T03:31:44;15.00;99.90
38866;DHT22;62686;48.984;8.394;2023-07-31T03:34:12;14.90;99.90
38866;DHT22;62686;48.984;8.394;2023-07-31T03:36:40;14.90;99.90
38866;DHT22;62686;48.984;8.394;2023-07-31T03:39:08;14.80;99.90
38866;DHT22;62686;48.984;8.394;2023-07-31T03:41:37;14.80;99.90
38866;DHT22;62686;48.984;8.394;2023-07-31T03:44:06;14.80;99.90
38866;DHT22;62686;48.984;8.394;2023-07-31T03:46:34;14.80;99.90
38866;DHT22;62686;48.984;8.394;2023-07-31T03:49:03;14.90;99.90
38866;DHT22;62686;48.984;8.394;2023-07-31T03:51:31;14.90;99.90
38866;DHT22;62686;48.984;8.394;2023-07-31T03:53:59;15.00;99.90
38866;DHT22;62686;48.984;8.394;2023-07-31T03:56:27;15.00;99.90
38866;DHT22;62686;48.984;8.394;2023-07-31T03:58:56;15.10;99.90
38866;DHT22;62686;48.984;8.394;2023-07-31T04:01:26;15.10;99.90
38866;DHT22;62686;48.984;8.394;2023-07-31T04:03:54;15.10;99.90
38866;DHT22;62686;48.984;8.394;2023-07-31T04:06:22;15.20;99.90
38866;DHT22;62686;48.984;8.394;2023-07-31T04:08:50;15.30;99.90
38866;DHT22;62686;48.984;8.394;2023-07-31T04:11:19;15.40;99.90
38866;DHT22;62686;48.984;8.394;2023-07-31T04:13:47;15.50;99.90
38866;DHT22;62686;48.984;8.394;2023-07-31T04:16:15;15.50;99.90
38866;DHT22;62686;48.984;8.394;2023-07-31T04:18:45;15.60;99.90
38866;DHT22;62686;48.984;8.394;2023-07-31T04:21:13;15.70;99.90
38866;DHT22;62686;48.984;8.394;2023-07-31T04:23:41;15.70;99.90
38866;DHT22;62686;48.984;8.394;2023-07-31T04:26:09;15.70;99.90
38866;DHT22;62686;48.984;8.394;2023-07-31T04:28:37;15.70;99.90
38866;DHT22;62686;48.984;8.394;2023-07-31T04:31:06;15.80;99.90
38866;DHT22;62686;48.984;8.394;2023-07-31T04:33:34;15.90;99.90
38866;DHT22;62686;48.984;8.394;2023-07-31T04:36:04;15.90;99.90
38866;DHT22;62686;48.984;8.394;2023-07-31T04:38:32;15.90;99.90
38866;DHT22;62686;48.984;8.394;2023-07-31T04:41:01;15.90;99.90
38866;DHT22;62686;48.984;8.394;2023-07-31T04:43:29;16.00;99.90
38866;DHT22;62686;48.984;8.394;2023-07-31T04:45:57;16.00;99.90
38866;DHT22;62686;48.984;8.394;2023-07-31T04:48:25;15.90;99.90
38866;DHT22;62686;48.984;8.394;2023-07-31T04:50:54;16.00;99.90
38866;DHT22;62686;48.984;8.394;2023-07-31T04:53:23;16.00;99.90
38866;DHT22;62686;48.984;8.394;2023-07-31T04:55:51;16.00;99.90
38866;DHT22;62686;48.984;8.394;2023-07-31T04:58:19;16.10;99.90
38866;DHT22;62686;48.984;8.394;2023-07-31T05:00:47;16.20;99.90
38866;DHT22;62686;48.984;8.394;2023-07-31T05:03:16;16.30;99.90
38866;DHT22;62686;48.984;8.394;2023-07-31T05:05:44;16.40;99.90
38866;DHT22;62686;48.984;8.394;2023-07-31T05:08:12;16.60;99.90
38866;DHT22;62686;48.984;8.394;2023-07-31T05:10:42;16.70;99.90
38866;DHT22;62686;48.984;8.394;2023-07-31T05:13:10;16.80;99.90
38866;DHT22;62686;48.984;8.394;2023-07-31T05:15:38;16.90;99.90
38866;DHT22;62686;48.984;8.394;2023-07-31T05:18:06;17.00;99.90
38866;DHT22;62686;48.984;8.394;2023-07-31T05:20:34;17.20;99.90
38866;DHT22;62686;48.984;8.394;2023-07-31T05:23:02;17.40;99.90
38866;DHT22;62686;48.984;8.394;2023-07-31T05:25:31;17.80;99.90
38866;DHT22;62686;48.984;8.394;2023-07-31T05:28:00;18.30;99.90
38866;DHT22;62686;48.984;8.394;2023-07-31T05:30:30;18.70;99.90
38866;DHT22;62686;48.984;8.394;2023-07-31T05:32:58;18.90;99.90
38866;DHT22;62686;48.984;8.394;2023-07-31T05:35:27;19.10;99.90
38866;DHT22;62686;48.984;8.394;2023-07-31T05:37:56;19.70;99.90
38866;DHT22;62686;48.984;8.394;2023-07-31T05:40:25;20.20;99.90
38866;DHT22;62686;48.984;8.394;2023-07-31T05:42:53;20.40;99.90
38866;DHT22;62686;48.984;8.394;2023-07-31T05:45:24;20.30;99.90
38866;DHT22;62686;48.984;8.394;2023-07-31T05:47:53;20.10;99.90
38866;DHT22;62686;48.984;8.394;2023-07-31T05:50:21;20.00;99.90
38866;DHT22;62686;48.984;8.394;2023-07-31T05:52:49;19.90;99.90
38866;DHT22;62686;48.984;8.394;2023-07-31T05:55:18;19.90;99.90
38866;DHT22;62686;48.984;8.394;2023-07-31T05:57:46;19.70;99.90
38866;DHT22;62686;48.984;8.394;2023-07-31T06:00:15;19.70;99.90
38866;DHT22;62686;48.984;8.394;2023-07-31T06:02:45;19.50;99.90
38866;DHT22;62686;48.984;8.394;2023-07-31T06:05:13;19.50;99.90
38866;DHT22;62686;48.984;8.394;2023-07-31T06:07:41;19.50;99.90
38866;DHT22;62686;48.984;8.394;2023-07-31T06:10:09;19.40;99.90
38866;DHT22;62686;48.984;8.394;2023-07-31T06:12:38;19.40;99.90
38866;DHT22;62686;48.984;8.394;2023-07-31T06:15:07;19.50;99.90
38866;DHT22;62686;48.984;8.394;2023-07-31T06:17:35;19.70;99.90
38866;DHT22;62686;48.984;8.394;2023-07-31T06:20:06;19.90;99.90
38866;DHT22;62686;48.984;8.394;2023-07-31T06:22:35;20.00;99.90
38866;DHT22;62686;48.984;8.394;2023-07-31T06:25:03;20.00;99.90
38866;DHT22;62686;48.984;8.394;2023-07-31T06:27:32;20.00;99.90
38866;DHT22;62686;48.984;8.394;2023-07-31T06:30:00;20.00;99.90
38866;DHT22;62686;48.984;8.394;2023-07-31T06:32:28;20.10;99.90
38866;DHT22;62686;48.984;8.394;2023-07-31T06:34:56;20.30;99.90
38866;DHT22;62686;48.984;8.394;2023-07-31T06:37:26;20.60;99.90
38866;DHT22;62686;48.984;8.394;2023-07-31T06:39:54;20.90;99.90
38866;DHT22;62686;48.984;8.394;2023-07-31T06:42:22;21.20;99.90
38866;DHT22;62686;48.984;8.394;2023-07-31T06:44:51;21.50;99.90
38866;DHT22;62686;48.984;8.394;2023-07-31T06:47:19;21.70;99.90
38866;DHT22;62686;48.984;8.394;2023-07-31T06:49:47;21.70;99.90
38866;DHT22;62686;48.984;8.394;2023-07-31T06:52:15;21.70;99.90
38866;DHT22;62686;48.984;8.394;2023-07-31T06:55:00;21.70;99.90
38866;DHT22;62686;48.984;8.394;2023-07-31T06:57:29;21.60;99.90
38866;DHT22;62686;48.984;8.394;2023-07-31T06:59:57;21.40;99.90
38866;DHT22;62686;48.984;8.394;2023-07-31T07:02:25;21.30;99.90
38866;DHT22;62686;48.984;8.394;2023-07-31T07:04:54;21.10;99.90
38866;DHT22;62686;48.984;8.394;2023-07-31T07:07:22;21.10;99.90
38866;DHT22;62686;48.984;8.394;2023-07-31T07:09:52;20.90;99.90
38866;DHT22;62686;48.984;8.394;2023-07-31T07:12:20;20.90;99.90
38866;DHT22;62686;48.984;8.394;2023-07-31T07:14:48;20.80;99.90
38866;DHT22;62686;48.984;8.394;2023-07-31T07:17:17;20.70;99.90
38866;DHT22;62686;48.984;8.394;2023-07-31T07:19:45;20.80;99.90
38866;DHT22;62686;48.984;8.394;2023-07-31T07:22:13;20.90;99.90
38866;DHT22;62686;48.984;8.394;2023-07-31T07:24:42;21.20;99.90
38866;DHT22;62686;48.984;8.394;2023-07-31T07:27:11;21.40;99.90
38866;DHT22;62686;48.984;8.394;2023-07-31T07:29:40;21.50;99.90
38866;DHT22;62686;48.984;8.394;2023-07-31T07:32:08;21.50;99.90
38866;DHT22;62686;48.984;8.394;2023-07-31T07:34:38;21.80;99.90
38866;DHT22;62686;48.984;8.394;2023-07-31T07:37:06;21.80;99.90
38866;DHT22;62686;48.984;8.394;2023-07-31T07:39:34;21.80;99.90
38866;DHT22;62686;48.984;8.394;2023-07-31T07:42:03;21.80;99.90
38866;DHT22;62686;48.984;8.394;2023-07-31T07:44:32;21.80;99.90
38866;DHT22;62686;48.984;8.394;2023-07-31T07:47:01;21.80;99.90
38866;DHT22;62686;48.984;8.394;2023-07-31T07:49:29;22.00;99.90
38866;DHT22;62686;48.984;8.394;2023-07-31T07:51:57;22.00;99.90
38866;DHT22;62686;48.984;8.394;2023-07-31T07:54:25;22.20;99.90
38866;DHT22;62686;48.984;8.394;2023-07-31T07:56:54;22.40;99.90
38866;DHT22;62686;48.984;8.394;2023-07-31T07:59:22;22.50;99.90
38866;DHT22;62686;48.984;8.394;2023-07-31T08:01:52;22.70;99.90
38866;DHT22;62686;48.984;8.394;2023-07-31T08:04:20;22.70;99.90
38866;DHT22;62686;48.984;8.394;2023-07-31T08:06:48;22.60;99.90
38866;DHT22;62686;48.984;8.394;2023-07-31T08:09:16;22.70;99.90
38866;DHT22;62686;48.984;8.394;2023-07-31T08:11:45;22.70;99.90
38866;DHT22;62686;48.984;8.394;2023-07-31T08:14:13;22.80;99.90
38866;DHT22;62686;48.984;8.394;2023-07-31T08:16:42;22.70;99.90
38866;DHT22;62686;48.984;8.394;2023-07-31T08:19:12;22.60;99.90
38866;DHT22;62686;48.984;8.394;2023-07-31T08:21:40;22.70;99.90
38866;DHT22;62686;48.984;8.394;2023-07-31T08:24:09;22.80;99.90
38866;DHT22;62686;48.984;8.394;2023-07-31T08:26:37;22.90;99.90
38866;DHT22;62686;48.984;8.394;2023-07-31T08:29:05;23.10;99.90
38866;DHT22;62686;48.984;8.394;2023-07-31T08:31:33;23.20;99.90
38866;DHT22;62686;48.984;8.394;2023-07-31T08:34:01;23.30;99.90
38866;DHT22;62686;48.984;8.394;2023-07-31T08:36:31;24.10;99.90
38866;DHT22;62686;48.984;8.394;2023-07-31T08:38:59;25.00;99.90
38866;DHT22;62686;48.984;8.394;2023-07-31T08:41:27;26.00;99.90
38866;DHT22;62686;48.984;8.394;2023-07-31T08:43:56;26.60;99.90
38866;DHT22;62686;48.984;8.394;2023-07-31T08:46:25;27.50;99.90
38866;DHT22;62686;48.984;8.394;2023-07-31T08:48:55;28.70;99.90
38866;DHT22;62686;48.984;8.394;2023-07-31T08:51:25;29.90;99.90
38866;DHT22;62686;48.984;8.394;2023-07-31T08:53:55;30.20;98.70
38866;DHT22;62686;48.984;8.394;2023-07-31T08:56:25;30.10;99.90
38866;DHT22;62686;48.984;8.394;2023-07-31T08:58:54;29.40;99.10
38866;DHT22;62686;48.984;8.394;2023-07-31T09:01:23;28.80;99.90
38866;DHT22;62686;48.984;8.394;2023-07-31T09:03:52;27.90;99.90
38866;DHT22;62686;48.984;8.394;2023-07-31T09:06:24;28.30;99.90
38866;DHT22;62686;48.984;8.394;2023-07-31T09:08:55;29.40;98.40
38866;DHT22;62686;48.984;8.394;2023-07-31T09:11:25;29.30;98.80
38866;DHT22;62686;48.984;8.394;2023-07-31T09:13:57;29.50;98.30
38866;DHT22;62686;48.984;8.394;2023-07-31T09:16:29;30.20;98.60
38866;DHT22;62686;48.984;8.394;2023-07-31T09:18:59;30.90;96.80
38866;DHT22;62686;48.984;8.394;2023-07-31T09:21:29;30.80;97.40
38866;DHT22;62686;48.984;8.394;2023-07-31T09:24:00;30.40;96.10
38866;DHT22;62686;48.984;8.394;2023-07-31T09:26:30;30.10;97.20
38866;DHT22;62686;48.984;8.394;2023-07-31T09:29:00;30.50;96.20
38866;DHT22;62686;48.984;8.394;2023-07-31T09:31:33;30.80;97.60
38866;DHT22;62686;48.984;8.394;2023-07-31T09:34:01;31.10;95.20
38866;DHT22;62686;48.984;8.394;2023-07-31T09:36:30;31.40;95.30
38866;DHT22;62686;48.984;8.394;2023-07-31T09:39:03;30.70;96.30
38866;DHT22;62686;48.984;8.394;2023-07-31T09:41:31;30.70;95.10
38866;DHT22;62686;48.984;8.394;2023-07-31T09:44:04;29.90;94.30
38866;DHT22;62686;48.984;8.394;2023-07-31T09:46:35;28.70;96.40
38866;DHT22;62686;48.984;8.394;2023-07-31T09:49:05;28.00;97.90
38866;DHT22;62686;48.984;8.394;2023-07-31T09:51:33;28.20;97.10
38866;DHT22;62686;48.984;8.394;2023-07-31T09:54:13;28.70;98.00
38866;DHT22;62686;48.984;8.394;2023-07-31T09:56:43;28.70;97.20
38866;DHT22;62686;48.984;8.394;2023-07-31T09:59:13;28.30;96.80
38866;DHT22;62686;48.984;8.394;2023-07-31T10:01:42;28.30;98.00
38866;DHT22;62686;48.984;8.394;2023-07-31T10:04:11;28.30;98.00
38866;DHT22;62686;48.984;8.394;2023-07-31T10:06:42;28.10;97.00
38866;DHT22;62686;48.984;8.394;2023-07-31T10:09:15;27.60;99.30
38866;DHT22;62686;48.984;8.394;2023-07-31T10:11:48;27.40;99.10
38866;DHT22;62686;48.984;8.394;2023-07-31T10:14:20;27.20;97.90
38866;DHT22;62686;48.984;8.394;2023-07-31T10:16:49;27.00;99.70
38866;DHT22;62686;48.984;8.394;2023-07-31T10:19:19;27.20;99.90
38866;DHT22;62686;48.984;8.394;2023-07-31T10:21:48;27.40;99.90
38866;DHT22;62686;48.984;8.394;2023-07-31T10:24:18;27.70;98.80
38866;DHT22;62686;48.984;8.394;2023-07-31T10:26:48;27.80;99.30
38866;DHT22;62686;48.984;8.394;2023-07-31T10:29:19;27.70;98.20
38866;DHT22;62686;48.984;8.394;2023-07-31T10:31:48;27.40;98.80
38866;DHT22;62686;48.984;8.394;2023-07-31T10:34:17;27.40;99.40
38866;DHT22;62686;48.984;8.394;2023-07-31T10:36:45;26.90;99.90
38866;DHT22;62686;48.984;8.394;2023-07-31T10:39:37;26.20;99.90
38866;DHT22;62686;48.984;8.394;2023-07-31T10:42:13;25.90;99.90
38866;DHT22;62686;48.984;8.394;2023-07-31T10:44:44;25.40;99.90
38866;DHT22;62686;48.984;8.394;2023-07-31T10:47:14;25.80;99.90
38866;DHT22;62686;48.984;8.394;2023-07-31T10:49:45;26.20;99.90
38866;DHT22;62686;48.984;8.394;2023-07-31T10:52:19;26.30;99.90
38866;DHT22;62686;48.984;8.394;2023-07-31T10:55:15;25.80;99.90
38866;DHT22;62686;48.984;8.394;2023-07-31T10:57:45;26.20;99.90
38866;DHT22;62686;48.984;8.394;2023-07-31T11:00:19;26.70;99.90
38866;DHT22;62686;48.984;8.394;2023-07-31T11:03:02;27.20;99.90
38866;DHT22;62686;48.984;8.394;2023-07-31T11:05:47;27.30;99.90
38866;DHT22;62686;48.984;8.394;2023-07-31T11:08:21;27.10;99.90
38866;DHT22;62686;48.984;8.394;2023-07-31T11:11:05;26.80;99.90
38866;DHT22;62686;48.984;8.394;2023-07-31T11:13:40;26.80;99.80
38866;DHT22;62686;48.984;8.394;2023-07-31T11:16:09;26.70;99.90
38866;DHT22;62686;48.984;8.394;2023-07-31T11:18:39;26.70;99.90
38866;DHT22;62686;48.984;8.394;2023-07-31T11:21:08;26.40;99.90
38866;DHT22;62686;48.984;8.394;2023-07-31T11:23:37;26.50;99.90
38866;DHT22;62686;48.984;8.394;2023-07-31T11:26:07;26.30;99.90
38866;DHT22;62686;48.984;8.394;2023-07-31T11:28:35;26.70;99.90
38866;DHT22;62686;48.984;8.394;2023-07-31T11:31:05;27.30;99.90
38866;DHT22;62686;48.984;8.394;2023-07-31T11:33:34;28.00;99.40
38866;DHT22;62686;48.984;8.394;2023-07-31T11:36:02;27.50;98.60
38866;DHT22;62686;48.984;8.394;2023-07-31T11:38:32;28.40;98.60
38866;DHT22;62686;48.984;8.394;2023-07-31T11:41:02;28.60;98.70
38866;DHT22;62686;48.984;8.394;2023-07-31T11:43:32;28.70;99.10
38866;DHT22;62686;48.984;8.394;2023-07-31T11:46:03;28.80;98.10
38866;DHT22;62686;48.984;8.394;2023-07-31T11:48:34;29.40;97.90
38866;DHT22;62686;48.984;8.394;2023-07-31T11:51:05;29.80;95.90
38866;DHT22;62686;48.984;8.394;2023-07-31T11:53:38;29.50;97.40
38866;DHT22;62686;48.984;8.394;2023-07-31T11:56:07;29.80;97.10
38866;DHT22;62686;48.984;8.394;2023-07-31T11:58:40;29.80;98.50
38866;DHT22;62686;48.984;8.394;2023-07-31T12:01:11;29.50;95.80
38866;DHT22;62686;48.984;8.394;2023-07-31T12:03:41;29.00;95.60
38866;DHT22;62686;48.984;8.394;2023-07-31T12:06:10;28.00;97.90
38866;DHT22;62686;48.984;8.394;2023-07-31T12:08:40;28.40;98.40
38866;DHT22;62686;48.984;8.394;2023-07-31T12:11:09;29.50;97.10
38866;DHT22;62686;48.984;8.394;2023-07-31T12:13:39;31.00;96.00
38866;DHT22;62686;48.984;8.394;2023-07-31T12:16:07;30.80;94.80
38866;DHT22;62686;48.984;8.394;2023-07-31T12:18:37;29.70;95.40
38866;DHT22;62686;48.984;8.394;2023-07-31T12:21:08;29.10;96.20
38866;DHT22;62686;48.984;8.394;2023-07-31T12:23:38;30.00;95.50
38866;DHT22;62686;48.984;8.394;2023-07-31T12:26:11;30.20;95.50
38866;DHT22;62686;48.984;8.394;2023-07-31T12:28:44;29.90;96.10
38866;DHT22;62686;48.984;8.394;2023-07-31T12:31:14;29.70;96.00
38866;DHT22;62686;48.984;8.394;2023-07-31T12:33:45;29.20;95.50
38866;DHT22;62686;48.984;8.394;2023-07-31T12:36:15;28.80;97.00
38866;DHT22;62686;48.984;8.394;2023-07-31T12:38:45;29.00;96.50
38866;DHT22;62686;48.984;8.394;2023-07-31T12:41:13;29.20;97.20
38866;DHT22;62686;48.984;8.394;2023-07-31T12:43:45;29.00;97.00
38866;DHT22;62686;48.984;8.394;2023-07-31T12:46:13;28.10;96.70
38866;DHT22;62686;48.984;8.394;2023-07-31T12:48:43;27.60;99.40
38866;DHT22;62686;48.984;8.394;2023-07-31T12:51:11;27.80;99.80
38866;DHT22;62686;48.984;8.394;2023-07-31T12:53:39;27.60;98.80
38866;DHT22;62686;48.984;8.394;2023-07-31T12:56:08;27.20;98.70
38866;DHT22;62686;48.984;8.394;2023-07-31T12:58:36;27.10;99.90
38866;DHT22;62686;48.984;8.394;2023-07-31T13:01:06;26.90;99.90
38866;DHT22;62686;48.984;8.394;2023-07-31T13:03:34;26.80;99.70
38866;DHT22;62686;48.984;8.394;2023-07-31T13:06:03;26.80;99.70
38866;DHT22;62686;48.984;8.394;2023-07-31T13:08:32;27.00;99.80
38866;DHT22;62686;48.984;8.394;2023-07-31T13:11:00;27.20;99.90
38866;DHT22;62686;48.984;8.394;2023-07-31T13:13:28;27.60;99.90
38866;DHT22;62686;48.984;8.394;2023-07-31T13:15:58;27.90;99.20
38866;DHT22;62686;48.984;8.394;2023-07-31T13:18:28;28.10;99.90
38866;DHT22;62686;48.984;8.394;2023-07-31T13:20:56;28.30;99.60
38866;DHT22;62686;48.984;8.394;2023-07-31T13:23:25;28.00;99.50
38866;DHT22;62686;48.984;8.394;2023-07-31T13:25:53;27.80;99.40
38866;DHT22;62686;48.984;8.394;2023-07-31T13:28:21;27.80;99.20
38866;DHT22;62686;48.984;8.394;2023-07-31T13:30:49;27.70;99.50
38866;DHT22;62686;48.984;8.394;2023-07-31T13:33:18;27.50;99.40
38866;DHT22;62686;48.984;8.394;2023-07-31T13:35:57;27.20;99.90
38866;DHT22;62686;48.984;8.394;2023-07-31T13:38:25;27.00;99.90
38866;DHT22;62686;48.984;8.394;2023-07-31T13:40:54;26.80;99.90
38866;DHT22;62686;48.984;8.394;2023-07-31T13:43:23;26.30;99.90
38866;DHT22;62686;48.984;8.394;2023-07-31T13:45:51;26.20;99.90
38866;DHT22;62686;48.984;8.394;2023-07-31T13:48:20;26.20;99.90
38866;DHT22;62686;48.984;8.394;2023-07-31T13:50:48;26.30;99.90
38866;DHT22;62686;48.984;8.394;2023-07-31T13:53:17;26.20;99.90
38866;DHT22;62686;48.984;8.394;2023-07-31T13:55:46;26.50;99.90
38866;DHT22;62686;48.984;8.394;2023-07-31T13:58:16;26.60;99.90
38866;DHT22;62686;48.984;8.394;2023-07-31T14:00:44;26.60;99.80
38866;DHT22;62686;48.984;8.394;2023-07-31T14:03:12;26.30;99.90
38866;DHT22;62686;48.984;8.394;2023-07-31T14:05:40;26.10;99.90
38866;DHT22;62686;48.984;8.394;2023-07-31T14:08:09;26.10;99.90
38866;DHT22;62686;48.984;8.394;2023-07-31T14:10:38;26.20;99.90
38866;DHT22;62686;48.984;8.394;2023-07-31T14:13:06;26.10;99.90
38866;DHT22;62686;48.984;8.394;2023-07-31T14:15:34;25.80;99.90
38866;DHT22;62686;48.984;8.394;2023-07-31T14:18:03;25.70;99.90
38866;DHT22;62686;48.984;8.394;2023-07-31T14:20:31;25.80;99.90
38866;DHT22;62686;48.984;8.394;2023-07-31T14:23:00;25.60;99.90
38866;DHT22;62686;48.984;8.394;2023-07-31T14:25:28;25.30;99.90
38866;DHT22;62686;48.984;8.394;2023-07-31T14:27:58;25.10;99.90
38866;DHT22;62686;48.984;8.394;2023-07-31T14:30:26;24.90;99.90
38866;DHT22;62686;48.984;8.394;2023-07-31T14:32:54;24.90;99.90
38866;DHT22;62686;48.984;8.394;2023-07-31T14:35:22;24.70;99.90
38866;DHT22;62686;48.984;8.394;2023-07-31T14:37:51;24.90;99.90
38866;DHT22;62686;48.984;8.394;2023-07-31T14:40:19;24.70;99.90
38866;DHT22;62686;48.984;8.394;2023-07-31T14:42:47;24.70;99.90
38866;DHT22;62686;48.984;8.394;2023-07-31T14:45:17;25.20;99.90
38866;DHT22;62686;48.984;8.394;2023-07-31T14:47:45;25.70;99.90
38866;DHT22;62686;48.984;8.394;2023-07-31T14:50:13;26.20;99.90
38866;DHT22;62686;48.984;8.394;2023-07-31T14:52:41;26.50;99.90
38866;DHT22;62686;48.984;8.394;2023-07-31T14:55:10;26.80;99.90
38866;DHT22;62686;48.984;8.394;2023-07-31T14:57:38;26.80;99.90
38866;DHT22;62686;48.984;8.394;2023-07-31T15:00:07;26.80;99.90
38866;DHT22;62686;48.984;8.394;2023-07-31T15:02:38;26.90;99.90
38866;DHT22;62686;48.984;8.394;2023-07-31T15:05:08;26.90;99.90
38866;DHT22;62686;48.984;8.394;2023-07-31T15:07:36;26.90;99.90
38866;DHT22;62686;48.984;8.394;2023-07-31T15:10:06;27.30;99.90
38866;DHT22;62686;48.984;8.394;2023-07-31T15:12:34;27.40;99.90
38866;DHT22;62686;48.984;8.394;2023-07-31T15:15:05;27.70;99.90
38866;DHT22;62686;48.984;8.394;2023-07-31T15:17:34;27.90;99.90
38866;DHT22;62686;48.984;8.394;2023-07-31T15:20:05;28.10;99.90
38866;DHT22;62686;48.984;8.394;2023-07-31T15:22:33;28.10;99.90
38866;DHT22;62686;48.984;8.394;2023-07-31T15:25:02;27.90;99.90
38866;DHT22;62686;48.984;8.394;2023-07-31T15:27:30;27.90;99.90
38866;DHT22;62686;48.984;8.394;2023-07-31T15:29:59;27.50;99.90
38866;DHT22;62686;48.984;8.394;2023-07-31T15:32:28;27.30;99.90
38866;DHT22;62686;48.984;8.394;2023-07-31T15:34:56;27.30;99.90
38866;DHT22;62686;48.984;8.394;2023-07-31T15:37:26;26.90;99.90
38866;DHT22;62686;48.984;8.394;2023-07-31T15:39:54;26.90;99.90
38866;DHT22;62686;48.984;8.394;2023-07-31T15:42:22;26.70;99.90
38866;DHT22;62686;48.984;8.394;2023-07-31T15:44:50;26.30;99.90